sensor_id;sensor_type;location;lat;lon;timestamp;temperature;humidity
68476;DHT22;55464;48.266;14.188;2022-08-25T00:01:35;19.50;81.20
68476;DHT22;55464;48.266;14.188;2022-08-25T00:04:03;19.50;81.20
68476;DHT22;55464;48.266;14.188;2022-08-25T00:06:30;19.40;81.20
68476;DHT22;55464;48.266;14.188;2022-08-25T00:08:56;19.50;81.40
68476;DHT22;55464;48.266;14.188;2022-08-25T00:11:26;19.50;81.40
68476;DHT22;55464;48.266;14.188;2022-08-25T00:13:58;19.50;81.40
68476;DHT22;55464;48.266;14.188;2022-08-25T00:16:26;19.50;81.40
68476;DHT22;55464;48.266;14.188;2022-08-25T00:18:54;19.50;81.30
68476;DHT22;55464;48.266;14.188;2022-08-25T00:21:21;19.50;81.30
68476;DHT22;55464;48.266;14.188;2022-08-25T00:23:47;19.50;81.40
68476;DHT22;55464;48.266;14.188;2022-08-25T00:26:14;19.50;81.40
68476;DHT22;55464;48.266;14.188;2022-08-25T00:28:40;19.50;81.40
68476;DHT22;55464;48.266;14.188;2022-08-25T00:31:10;19.50;81.20
68476;DHT22;55464;48.266;14.188;2022-08-25T00:33:37;19.50;81.20
68476;DHT22;55464;48.266;14.188;2022-08-25T00:36:03;19.40;81.10
68476;DHT22;55464;48.266;14.188;2022-08-25T00:38:28;19.30;81.30
68476;DHT22;55464;48.266;14.188;2022-08-25T00:40:54;19.20;81.40
68476;DHT22;55464;48.266;14.188;2022-08-25T00:46:05;19.10;81.60
68476;DHT22;55464;48.266;14.188;2022-08-25T00:48:31;19.10;81.70
68476;DHT22;55464;48.266;14.188;2022-08-25T00:50:58;19.10;81.90
68476;DHT22;55464;48.266;14.188;2022-08-25T00:53:24;19.10;81.90
68476;DHT22;55464;48.266;14.188;2022-08-25T00:55:50;19.00;82.10
68476;DHT22;55464;48.266;14.188;2022-08-25T00:58:22;19.00;82.20
68476;DHT22;55464;48.266;14.188;2022-08-25T01:00:52;19.00;82.30
68476;DHT22;55464;48.266;14.188;2022-08-25T01:03:19;19.00;82.30
68476;DHT22;55464;48.266;14.188;2022-08-25T01:05:46;18.90;82.50
68476;DHT22;55464;48.266;14.188;2022-08-25T01:08:13;18.90;82.50
68476;DHT22;55464;48.266;14.188;2022-08-25T01:10:42;19.00;82.60
68476;DHT22;55464;48.266;14.188;2022-08-25T01:13:32;18.90;82.70
68476;DHT22;55464;48.266;14.188;2022-08-25T01:15:59;18.90;82.70
68476;DHT22;55464;48.266;14.188;2022-08-25T01:18:26;18.90;82.70
68476;DHT22;55464;48.266;14.188;2022-08-25T01:20:57;19.00;82.20
68476;DHT22;55464;48.266;14.188;2022-08-25T01:23:24;19.00;82.10
68476;DHT22;55464;48.266;14.188;2022-08-25T01:28:21;18.90;81.60
68476;DHT22;55464;48.266;14.188;2022-08-25T01:30:47;18.90;81.50
68476;DHT22;55464;48.266;14.188;2022-08-25T01:33:14;18.80;81.70
68476;DHT22;55464;48.266;14.188;2022-08-25T01:35:43;18.80;82.20
68476;DHT22;55464;48.266;14.188;2022-08-25T01:38:09;18.80;82.60
68476;DHT22;55464;48.266;14.188;2022-08-25T01:40:36;18.80;82.90
68476;DHT22;55464;48.266;14.188;2022-08-25T01:45:42;18.80;83.00
68476;DHT22;55464;48.266;14.188;2022-08-25T01:48:09;18.90;83.20
68476;DHT22;55464;48.266;14.188;2022-08-25T01:50:35;18.80;83.40
68476;DHT22;55464;48.266;14.188;2022-08-25T01:53:29;18.90;83.50
68476;DHT22;55464;48.266;14.188;2022-08-25T01:55:55;18.90;83.80
68476;DHT22;55464;48.266;14.188;2022-08-25T01:58:34;19.00;83.70
68476;DHT22;55464;48.266;14.188;2022-08-25T02:01:03;19.00;83.70
68476;DHT22;55464;48.266;14.188;2022-08-25T02:03:30;19.00;83.80
68476;DHT22;55464;48.266;14.188;2022-08-25T02:05:57;19.00;83.60
68476;DHT22;55464;48.266;14.188;2022-08-25T02:08:23;19.00;83.50
68476;DHT22;55464;48.266;14.188;2022-08-25T02:10:50;19.00;83.50
68476;DHT22;55464;48.266;14.188;2022-08-25T02:13:16;19.10;83.40
68476;DHT22;55464;48.266;14.188;2022-08-25T02:15:47;19.10;83.30
68476;DHT22;55464;48.266;14.188;2022-08-25T02:18:14;19.10;83.40
68476;DHT22;55464;48.266;14.188;2022-08-25T02:20:40;19.10;83.50
68476;DHT22;55464;48.266;14.188;2022-08-25T02:23:06;19.10;83.60
68476;DHT22;55464;48.266;14.188;2022-08-25T02:25:33;19.10;83.50
68476;DHT22;55464;48.266;14.188;2022-08-25T02:27:59;19.10;83.40
68476;DHT22;55464;48.266;14.188;2022-08-25T02:30:25;19.00;83.40
68476;DHT22;55464;48.266;14.188;2022-08-25T02:32:51;19.10;83.30
68476;DHT22;55464;48.266;14.188;2022-08-25T02:35:17;19.10;83.20
68476;DHT22;55464;48.266;14.188;2022-08-25T02:37:43;19.10;83.00
68476;DHT22;55464;48.266;14.188;2022-08-25T02:40:09;19.00;82.90
68476;DHT22;55464;48.266;14.188;2022-08-25T02:42:35;19.00;83.00
68476;DHT22;55464;48.266;14.188;2022-08-25T02:45:02;19.00;82.80
68476;DHT22;55464;48.266;14.188;2022-08-25T02:47:28;18.90;82.90
68476;DHT22;55464;48.266;14.188;2022-08-25T02:49:54;18.90;82.80
68476;DHT22;55464;48.266;14.188;2022-08-25T02:52:20;18.80;82.80
68476;DHT22;55464;48.266;14.188;2022-08-25T02:54:45;18.80;82.80
68476;DHT22;55464;48.266;14.188;2022-08-25T02:57:14;18.70;82.70
68476;DHT22;55464;48.266;14.188;2022-08-25T02:59:40;18.60;82.80
68476;DHT22;55464;48.266;14.188;2022-08-25T03:02:06;18.60;82.90
68476;DHT22;55464;48.266;14.188;2022-08-25T03:04:32;18.60;82.70
68476;DHT22;55464;48.266;14.188;2022-08-25T03:06:58;18.60;82.70
68476;DHT22;55464;48.266;14.188;2022-08-25T03:09:26;18.60;82.80
68476;DHT22;55464;48.266;14.188;2022-08-25T03:11:51;18.50;82.80
68476;DHT22;55464;48.266;14.188;2022-08-25T03:14:17;18.50;82.80
68476;DHT22;55464;48.266;14.188;2022-08-25T03:16:43;18.50;83.00
68476;DHT22;55464;48.266;14.188;2022-08-25T03:19:09;18.50;83.20
68476;DHT22;55464;48.266;14.188;2022-08-25T03:21:36;18.50;83.20
68476;DHT22;55464;48.266;14.188;2022-08-25T03:24:03;18.50;82.90
68476;DHT22;55464;48.266;14.188;2022-08-25T03:26:29;18.50;82.90
68476;DHT22;55464;48.266;14.188;2022-08-25T03:29:13;18.50;82.80
68476;DHT22;55464;48.266;14.188;2022-08-25T03:31:39;18.50;82.80
68476;DHT22;55464;48.266;14.188;2022-08-25T03:34:07;18.50;83.00
68476;DHT22;55464;48.266;14.188;2022-08-25T03:36:33;18.50;83.20
68476;DHT22;55464;48.266;14.188;2022-08-25T03:38:59;18.50;83.40
68476;DHT22;55464;48.266;14.188;2022-08-25T03:41:28;18.50;83.40
68476;DHT22;55464;48.266;14.188;2022-08-25T03:43:54;18.50;83.70
68476;DHT22;55464;48.266;14.188;2022-08-25T03:46:29;18.50;84.00
68476;DHT22;55464;48.266;14.188;2022-08-25T03:48:55;18.50;84.20
68476;DHT22;55464;48.266;14.188;2022-08-25T03:51:25;18.60;84.30
68476;DHT22;55464;48.266;14.188;2022-08-25T03:53:52;18.60;84.40
68476;DHT22;55464;48.266;14.188;2022-08-25T03:56:18;18.60;84.60
68476;DHT22;55464;48.266;14.188;2022-08-25T03:58:44;18.60;84.40
68476;DHT22;55464;48.266;14.188;2022-08-25T04:01:10;18.70;84.20
68476;DHT22;55464;48.266;14.188;2022-08-25T04:03:36;18.60;84.00
68476;DHT22;55464;48.266;14.188;2022-08-25T04:06:04;18.60;84.10
68476;DHT22;55464;48.266;14.188;2022-08-25T04:08:30;18.60;84.00
68476;DHT22;55464;48.266;14.188;2022-08-25T04:10:55;18.50;84.10
68476;DHT22;55464;48.266;14.188;2022-08-25T04:13:21;18.60;84.20
68476;DHT22;55464;48.266;14.188;2022-08-25T04:15:47;18.60;84.40
68476;DHT22;55464;48.266;14.188;2022-08-25T04:18:13;18.60;84.50
68476;DHT22;55464;48.266;14.188;2022-08-25T04:20:42;18.60;84.40
68476;DHT22;55464;48.266;14.188;2022-08-25T04:23:09;18.70;84.30
68476;DHT22;55464;48.266;14.188;2022-08-25T04:25:39;18.60;84.20
68476;DHT22;55464;48.266;14.188;2022-08-25T04:28:08;18.70;84.30
68476;DHT22;55464;48.266;14.188;2022-08-25T04:30:34;18.70;84.30
68476;DHT22;55464;48.266;14.188;2022-08-25T04:33:00;18.60;84.20
68476;DHT22;55464;48.266;14.188;2022-08-25T04:35:25;18.70;84.20
68476;DHT22;55464;48.266;14.188;2022-08-25T04:37:51;18.70;84.30
68476;DHT22;55464;48.266;14.188;2022-08-25T04:40:17;18.70;84.30
68476;DHT22;55464;48.266;14.188;2022-08-25T04:42:43;18.70;84.20
68476;DHT22;55464;48.266;14.188;2022-08-25T04:45:09;18.80;84.30
68476;DHT22;55464;48.266;14.188;2022-08-25T04:47:37;18.80;84.30
68476;DHT22;55464;48.266;14.188;2022-08-25T04:50:04;18.80;84.40
68476;DHT22;55464;48.266;14.188;2022-08-25T04:52:30;18.90;84.50
68476;DHT22;55464;48.266;14.188;2022-08-25T04:54:56;18.90;84.70
68476;DHT22;55464;48.266;14.188;2022-08-25T04:57:21;18.90;84.80
68476;DHT22;55464;48.266;14.188;2022-08-25T04:59:47;18.90;85.00
68476;DHT22;55464;48.266;14.188;2022-08-25T05:02:13;18.90;85.10
68476;DHT22;55464;48.266;14.188;2022-08-25T05:04:39;18.90;85.30
68476;DHT22;55464;48.266;14.188;2022-08-25T05:07:05;18.90;85.30
68476;DHT22;55464;48.266;14.188;2022-08-25T05:09:32;18.80;85.40
68476;DHT22;55464;48.266;14.188;2022-08-25T05:11:57;18.90;85.50
68476;DHT22;55464;48.266;14.188;2022-08-25T05:14:24;18.90;85.40
68476;DHT22;55464;48.266;14.188;2022-08-25T05:16:50;18.90;85.40
68476;DHT22;55464;48.266;14.188;2022-08-25T05:19:16;18.90;85.40
68476;DHT22;55464;48.266;14.188;2022-08-25T05:21:41;18.90;85.40
68476;DHT22;55464;48.266;14.188;2022-08-25T05:24:08;18.90;85.60
68476;DHT22;55464;48.266;14.188;2022-08-25T05:26:34;18.90;85.80
68476;DHT22;55464;48.266;14.188;2022-08-25T05:29:02;18.90;85.70
68476;DHT22;55464;48.266;14.188;2022-08-25T05:31:29;18.80;85.70
68476;DHT22;55464;48.266;14.188;2022-08-25T05:33:56;18.90;85.70
68476;DHT22;55464;48.266;14.188;2022-08-25T05:36:23;18.90;85.70
68476;DHT22;55464;48.266;14.188;2022-08-25T05:38:49;18.90;85.80
68476;DHT22;55464;48.266;14.188;2022-08-25T05:41:18;18.90;85.80
68476;DHT22;55464;48.266;14.188;2022-08-25T05:43:47;18.90;85.80
68476;DHT22;55464;48.266;14.188;2022-08-25T05:46:13;19.00;85.90
68476;DHT22;55464;48.266;14.188;2022-08-25T05:48:40;19.00;86.00
68476;DHT22;55464;48.266;14.188;2022-08-25T05:51:08;19.00;86.00
68476;DHT22;55464;48.266;14.188;2022-08-25T05:53:36;19.00;85.90
68476;DHT22;55464;48.266;14.188;2022-08-25T05:56:02;19.00;86.00
68476;DHT22;55464;48.266;14.188;2022-08-25T05:58:29;19.00;86.10
68476;DHT22;55464;48.266;14.188;2022-08-25T06:00:56;19.00;86.10
68476;DHT22;55464;48.266;14.188;2022-08-25T06:03:22;19.00;86.00
68476;DHT22;55464;48.266;14.188;2022-08-25T06:05:48;19.00;85.90
68476;DHT22;55464;48.266;14.188;2022-08-25T06:08:15;19.10;85.90
68476;DHT22;55464;48.266;14.188;2022-08-25T06:10:41;19.10;86.00
68476;DHT22;55464;48.266;14.188;2022-08-25T06:13:07;19.10;86.30
68476;DHT22;55464;48.266;14.188;2022-08-25T06:15:33;19.10;86.40
68476;DHT22;55464;48.266;14.188;2022-08-25T06:17:59;19.10;86.40
68476;DHT22;55464;48.266;14.188;2022-08-25T06:20:28;19.10;86.40
68476;DHT22;55464;48.266;14.188;2022-08-25T06:22:55;19.10;86.50
68476;DHT22;55464;48.266;14.188;2022-08-25T06:25:24;19.20;86.60
68476;DHT22;55464;48.266;14.188;2022-08-25T06:27:50;19.20;86.10
68476;DHT22;55464;48.266;14.188;2022-08-25T06:30:19;19.20;85.90
68476;DHT22;55464;48.266;14.188;2022-08-25T06:32:45;19.10;85.60
68476;DHT22;55464;48.266;14.188;2022-08-25T06:35:14;19.20;85.60
68476;DHT22;55464;48.266;14.188;2022-08-25T06:37:41;19.20;85.70
68476;DHT22;55464;48.266;14.188;2022-08-25T06:40:07;19.20;85.30
68476;DHT22;55464;48.266;14.188;2022-08-25T06:42:33;19.20;85.20
68476;DHT22;55464;48.266;14.188;2022-08-25T06:44:59;19.30;85.30
68476;DHT22;55464;48.266;14.188;2022-08-25T06:47:25;19.30;85.20
68476;DHT22;55464;48.266;14.188;2022-08-25T06:49:51;19.40;85.20
68476;DHT22;55464;48.266;14.188;2022-08-25T06:52:17;19.40;85.20
68476;DHT22;55464;48.266;14.188;2022-08-25T06:54:43;19.50;85.30
68476;DHT22;55464;48.266;14.188;2022-08-25T06:57:08;19.50;85.40
68476;DHT22;55464;48.266;14.188;2022-08-25T06:59:35;19.50;85.20
68476;DHT22;55464;48.266;14.188;2022-08-25T07:02:02;19.50;85.10
68476;DHT22;55464;48.266;14.188;2022-08-25T07:04:29;19.50;85.00
68476;DHT22;55464;48.266;14.188;2022-08-25T07:06:54;19.50;85.00
68476;DHT22;55464;48.266;14.188;2022-08-25T07:09:20;19.50;85.20
68476;DHT22;55464;48.266;14.188;2022-08-25T07:11:46;19.50;85.30
68476;DHT22;55464;48.266;14.188;2022-08-25T07:14:14;19.60;85.40
68476;DHT22;55464;48.266;14.188;2022-08-25T07:16:41;19.50;85.20
68476;DHT22;55464;48.266;14.188;2022-08-25T07:19:07;19.50;85.20
68476;DHT22;55464;48.266;14.188;2022-08-25T07:21:35;19.60;85.30
68476;DHT22;55464;48.266;14.188;2022-08-25T07:24:05;19.60;85.60
68476;DHT22;55464;48.266;14.188;2022-08-25T07:26:32;19.60;85.80
68476;DHT22;55464;48.266;14.188;2022-08-25T07:29:05;19.60;85.80
68476;DHT22;55464;48.266;14.188;2022-08-25T07:31:32;19.60;86.00
68476;DHT22;55464;48.266;14.188;2022-08-25T07:33:57;19.60;85.90
68476;DHT22;55464;48.266;14.188;2022-08-25T07:36:42;19.70;85.70
68476;DHT22;55464;48.266;14.188;2022-08-25T07:39:11;19.70;85.70
68476;DHT22;55464;48.266;14.188;2022-08-25T07:41:39;19.70;85.80
68476;DHT22;55464;48.266;14.188;2022-08-25T07:44:07;19.70;85.80
68476;DHT22;55464;48.266;14.188;2022-08-25T07:46:33;19.80;85.80
68476;DHT22;55464;48.266;14.188;2022-08-25T07:48:58;19.80;85.80
68476;DHT22;55464;48.266;14.188;2022-08-25T07:51:24;19.90;85.60
68476;DHT22;55464;48.266;14.188;2022-08-25T07:53:50;19.90;85.70
68476;DHT22;55464;48.266;14.188;2022-08-25T07:56:16;20.00;85.50
68476;DHT22;55464;48.266;14.188;2022-08-25T07:58:44;20.00;85.40
68476;DHT22;55464;48.266;14.188;2022-08-25T08:01:19;20.00;85.40
68476;DHT22;55464;48.266;14.188;2022-08-25T08:03:49;20.00;85.40
68476;DHT22;55464;48.266;14.188;2022-08-25T08:06:17;20.00;85.40
68476;DHT22;55464;48.266;14.188;2022-08-25T08:08:45;20.00;85.40
68476;DHT22;55464;48.266;14.188;2022-08-25T08:11:20;20.00;85.30
68476;DHT22;55464;48.266;14.188;2022-08-25T08:13:48;20.00;85.40
68476;DHT22;55464;48.266;14.188;2022-08-25T08:16:15;20.00;85.80
68476;DHT22;55464;48.266;14.188;2022-08-25T08:18:43;20.00;85.80
68476;DHT22;55464;48.266;14.188;2022-08-25T08:21:18;20.00;85.90
68476;DHT22;55464;48.266;14.188;2022-08-25T08:23:45;20.10;85.80
68476;DHT22;55464;48.266;14.188;2022-08-25T08:26:12;20.00;85.70
68476;DHT22;55464;48.266;14.188;2022-08-25T08:28:38;20.10;85.80
68476;DHT22;55464;48.266;14.188;2022-08-25T08:31:04;20.10;85.80
68476;DHT22;55464;48.266;14.188;2022-08-25T08:33:30;20.10;85.70
68476;DHT22;55464;48.266;14.188;2022-08-25T08:36:02;20.10;85.60
68476;DHT22;55464;48.266;14.188;2022-08-25T08:38:29;20.20;85.70
68476;DHT22;55464;48.266;14.188;2022-08-25T08:57:59;20.40;85.50
68476;DHT22;55464;48.266;14.188;2022-08-25T09:00:27;20.30;85.50
68476;DHT22;55464;48.266;14.188;2022-08-25T09:03:06;20.40;85.90
68476;DHT22;55464;48.266;14.188;2022-08-25T09:05:45;20.40;86.00
68476;DHT22;55464;48.266;14.188;2022-08-25T09:08:13;20.50;86.10
68476;DHT22;55464;48.266;14.188;2022-08-25T09:27:54;20.60;86.10
68476;DHT22;55464;48.266;14.188;2022-08-25T09:30:26;20.70;86.20
68476;DHT22;55464;48.266;14.188;2022-08-25T09:32:58;20.70;86.20
68476;DHT22;55464;48.266;14.188;2022-08-25T09:35:34;20.80;86.20
68476;DHT22;55464;48.266;14.188;2022-08-25T09:38:09;20.80;86.20
68476;DHT22;55464;48.266;14.188;2022-08-25T09:40:42;20.90;86.40
68476;DHT22;55464;48.266;14.188;2022-08-25T09:45:57;21.00;86.50
68476;DHT22;55464;48.266;14.188;2022-08-25T09:51:00;21.10;86.30
68476;DHT22;55464;48.266;14.188;2022-08-25T09:53:27;21.10;86.10
68476;DHT22;55464;48.266;14.188;2022-08-25T09:55:59;21.20;86.40
68476;DHT22;55464;48.266;14.188;2022-08-25T09:58:29;21.30;86.60
68476;DHT22;55464;48.266;14.188;2022-08-25T10:03:29;21.40;86.70
68476;DHT22;55464;48.266;14.188;2022-08-25T10:05:57;21.40;86.80
68476;DHT22;55464;48.266;14.188;2022-08-25T10:11:10;21.40;86.30
68476;DHT22;55464;48.266;14.188;2022-08-25T10:13:45;21.50;86.40
68476;DHT22;55464;48.266;14.188;2022-08-25T10:16:24;21.50;86.30
68476;DHT22;55464;48.266;14.188;2022-08-25T10:19:05;21.50;86.30
68476;DHT22;55464;48.266;14.188;2022-08-25T10:21:33;21.50;86.20
68476;DHT22;55464;48.266;14.188;2022-08-25T10:23:59;21.50;86.20
68476;DHT22;55464;48.266;14.188;2022-08-25T10:26:57;21.60;85.90
68476;DHT22;55464;48.266;14.188;2022-08-25T10:46:40;21.70;85.10
68476;DHT22;55464;48.266;14.188;2022-08-25T10:49:18;21.70;84.60
68476;DHT22;55464;48.266;14.188;2022-08-25T10:59:57;21.80;84.90
68476;DHT22;55464;48.266;14.188;2022-08-25T11:07:41;21.80;84.60
68476;DHT22;55464;48.266;14.188;2022-08-25T11:10:16;21.80;84.80
68476;DHT22;55464;48.266;14.188;2022-08-25T11:15:22;22.00;84.90
68476;DHT22;55464;48.266;14.188;2022-08-25T11:17:57;22.00;85.10
68476;DHT22;55464;48.266;14.188;2022-08-25T11:20:35;22.00;84.90
68476;DHT22;55464;48.266;14.188;2022-08-25T11:25:41;22.10;84.60
68476;DHT22;55464;48.266;14.188;2022-08-25T11:28:12;22.10;85.00
68476;DHT22;55464;48.266;14.188;2022-08-25T11:30:40;22.20;85.00
68476;DHT22;55464;48.266;14.188;2022-08-25T11:33:07;22.20;84.80
68476;DHT22;55464;48.266;14.188;2022-08-25T11:38:27;22.30;84.10
68476;DHT22;55464;48.266;14.188;2022-08-25T11:51:39;22.30;83.50
68476;DHT22;55464;48.266;14.188;2022-08-25T11:54:21;22.30;83.20
68476;DHT22;55464;48.266;14.188;2022-08-25T11:57:01;22.30;83.30
68476;DHT22;55464;48.266;14.188;2022-08-25T12:04:56;22.40;82.90
68476;DHT22;55464;48.266;14.188;2022-08-25T12:10:15;22.50;83.20
68476;DHT22;55464;48.266;14.188;2022-08-25T12:18:15;22.50;82.90
68476;DHT22;55464;48.266;14.188;2022-08-25T12:21:10;22.50;82.90
68476;DHT22;55464;48.266;14.188;2022-08-25T12:29:28;22.50;82.00
68476;DHT22;55464;48.266;14.188;2022-08-25T12:32:20;22.50;82.00
68476;DHT22;55464;48.266;14.188;2022-08-25T12:35:28;22.50;82.10
68476;DHT22;55464;48.266;14.188;2022-08-25T12:45:52;22.50;82.20
68476;DHT22;55464;48.266;14.188;2022-08-25T12:51:05;22.40;82.40
68476;DHT22;55464;48.266;14.188;2022-08-25T12:56:23;22.40;82.50
68476;DHT22;55464;48.266;14.188;2022-08-25T13:12:54;22.50;82.40
68476;DHT22;55464;48.266;14.188;2022-08-25T13:15:33;22.50;82.60
68476;DHT22;55464;48.266;14.188;2022-08-25T13:20:52;22.50;82.30
68476;DHT22;55464;48.266;14.188;2022-08-25T13:23:24;22.50;82.40
68476;DHT22;55464;48.266;14.188;2022-08-25T13:25:52;22.50;82.60
68476;DHT22;55464;48.266;14.188;2022-08-25T13:28:34;22.50;82.70
68476;DHT22;55464;48.266;14.188;2022-08-25T13:31:15;22.50;82.70
68476;DHT22;55464;48.266;14.188;2022-08-25T13:33:52;22.50;82.90
68476;DHT22;55464;48.266;14.188;2022-08-25T13:36:18;22.50;82.70
68476;DHT22;55464;48.266;14.188;2022-08-25T13:39:32;22.50;82.50
68476;DHT22;55464;48.266;14.188;2022-08-25T13:41:59;22.60;81.90
68476;DHT22;55464;48.266;14.188;2022-08-25T13:44:29;22.60;81.90
68476;DHT22;55464;48.266;14.188;2022-08-25T13:49:34;22.60;81.80
68476;DHT22;55464;48.266;14.188;2022-08-25T13:52:00;22.60;82.10
68476;DHT22;55464;48.266;14.188;2022-08-25T13:57:26;22.60;82.20
68476;DHT22;55464;48.266;14.188;2022-08-25T13:59:59;22.60;82.30
68476;DHT22;55464;48.266;14.188;2022-08-25T14:02:46;22.60;82.40
68476;DHT22;55464;48.266;14.188;2022-08-25T14:05:14;22.50;82.20
68476;DHT22;55464;48.266;14.188;2022-08-25T14:07:54;22.50;82.40
68476;DHT22;55464;48.266;14.188;2022-08-25T14:10:41;22.60;82.50
68476;DHT22;55464;48.266;14.188;2022-08-25T14:16:20;22.50;82.60
68476;DHT22;55464;48.266;14.188;2022-08-25T14:18:52;22.60;82.30
68476;DHT22;55464;48.266;14.188;2022-08-25T14:21:23;22.50;82.40
68476;DHT22;55464;48.266;14.188;2022-08-25T14:23:51;22.60;82.20
68476;DHT22;55464;48.266;14.188;2022-08-25T14:26:17;22.50;82.30
68476;DHT22;55464;48.266;14.188;2022-08-25T14:28:43;22.50;82.40
68476;DHT22;55464;48.266;14.188;2022-08-25T14:31:14;22.50;82.50
68476;DHT22;55464;48.266;14.188;2022-08-25T14:34:20;22.50;82.60
68476;DHT22;55464;48.266;14.188;2022-08-25T14:36:48;22.50;82.50
68476;DHT22;55464;48.266;14.188;2022-08-25T14:39:14;22.50;82.50
68476;DHT22;55464;48.266;14.188;2022-08-25T14:41:42;22.50;82.40
68476;DHT22;55464;48.266;14.188;2022-08-25T14:44:08;22.60;82.20
68476;DHT22;55464;48.266;14.188;2022-08-25T14:46:37;22.70;81.90
68476;DHT22;55464;48.266;14.188;2022-08-25T14:49:08;22.70;81.70
68476;DHT22;55464;48.266;14.188;2022-08-25T14:51:38;22.70;81.70
68476;DHT22;55464;48.266;14.188;2022-08-25T14:54:06;22.80;81.60
68476;DHT22;55464;48.266;14.188;2022-08-25T14:56:34;22.70;81.40
68476;DHT22;55464;48.266;14.188;2022-08-25T14:59:00;22.80;81.20
68476;DHT22;55464;48.266;14.188;2022-08-25T15:01:27;22.70;81.20
68476;DHT22;55464;48.266;14.188;2022-08-25T15:04:03;22.70;81.00
68476;DHT22;55464;48.266;14.188;2022-08-25T15:06:29;22.70;80.90
68476;DHT22;55464;48.266;14.188;2022-08-25T15:08:55;22.70;81.00
68476;DHT22;55464;48.266;14.188;2022-08-25T15:11:37;22.80;80.90
68476;DHT22;55464;48.266;14.188;2022-08-25T15:14:02;22.70;80.50
68476;DHT22;55464;48.266;14.188;2022-08-25T15:16:33;22.70;80.90
68476;DHT22;55464;48.266;14.188;2022-08-25T15:19:00;22.70;80.90
68476;DHT22;55464;48.266;14.188;2022-08-25T15:21:26;22.70;81.00
68476;DHT22;55464;48.266;14.188;2022-08-25T15:23:51;22.70;81.10
68476;DHT22;55464;48.266;14.188;2022-08-25T15:26:18;22.70;81.10
68476;DHT22;55464;48.266;14.188;2022-08-25T15:28:48;22.80;80.80
68476;DHT22;55464;48.266;14.188;2022-08-25T15:31:17;22.70;80.70
68476;DHT22;55464;48.266;14.188;2022-08-25T15:33:42;22.80;80.70
68476;DHT22;55464;48.266;14.188;2022-08-25T15:36:10;22.70;80.70
68476;DHT22;55464;48.266;14.188;2022-08-25T15:38:37;22.80;80.60
68476;DHT22;55464;48.266;14.188;2022-08-25T15:41:04;22.70;80.30
68476;DHT22;55464;48.266;14.188;2022-08-25T15:43:30;22.80;80.10
68476;DHT22;55464;48.266;14.188;2022-08-25T15:45:56;22.80;80.00
68476;DHT22;55464;48.266;14.188;2022-08-25T15:48:22;22.80;79.90
68476;DHT22;55464;48.266;14.188;2022-08-25T15:50:53;22.90;80.10
68476;DHT22;55464;48.266;14.188;2022-08-25T15:53:23;22.90;80.00
68476;DHT22;55464;48.266;14.188;2022-08-25T15:55:51;22.90;80.00
68476;DHT22;55464;48.266;14.188;2022-08-25T15:58:17;23.00;80.00
68476;DHT22;55464;48.266;14.188;2022-08-25T16:00:45;23.00;80.10
68476;DHT22;55464;48.266;14.188;2022-08-25T16:03:11;23.00;80.30
68476;DHT22;55464;48.266;14.188;2022-08-25T16:05:41;23.00;80.40
68476;DHT22;55464;48.266;14.188;2022-08-25T16:08:08;22.90;80.60
68476;DHT22;55464;48.266;14.188;2022-08-25T16:10:36;22.90;80.90
68476;DHT22;55464;48.266;14.188;2022-08-25T16:13:03;22.90;81.00
68476;DHT22;55464;48.266;14.188;2022-08-25T16:15:30;22.80;80.90
68476;DHT22;55464;48.266;14.188;2022-08-25T16:17:58;22.80;80.90
68476;DHT22;55464;48.266;14.188;2022-08-25T16:20:25;22.70;80.90
68476;DHT22;55464;48.266;14.188;2022-08-25T16:22:51;22.70;81.10
68476;DHT22;55464;48.266;14.188;2022-08-25T16:25:16;22.70;81.20
68476;DHT22;55464;48.266;14.188;2022-08-25T16:27:42;22.60;81.50
68476;DHT22;55464;48.266;14.188;2022-08-25T16:30:10;22.60;81.60
68476;DHT22;55464;48.266;14.188;2022-08-25T16:32:36;22.60;81.80
68476;DHT22;55464;48.266;14.188;2022-08-25T16:35:03;22.50;82.00
68476;DHT22;55464;48.266;14.188;2022-08-25T16:37:29;22.50;82.10
68476;DHT22;55464;48.266;14.188;2022-08-25T16:39:55;22.50;82.30
68476;DHT22;55464;48.266;14.188;2022-08-25T16:42:20;22.50;82.40
68476;DHT22;55464;48.266;14.188;2022-08-25T16:44:46;22.50;82.40
68476;DHT22;55464;48.266;14.188;2022-08-25T16:47:12;22.50;82.50
68476;DHT22;55464;48.266;14.188;2022-08-25T16:49:39;22.50;82.50
68476;DHT22;55464;48.266;14.188;2022-08-25T16:52:06;22.50;82.50
68476;DHT22;55464;48.266;14.188;2022-08-25T16:54:51;22.40;82.60
68476;DHT22;55464;48.266;14.188;2022-08-25T16:57:36;22.40;82.60
68476;DHT22;55464;48.266;14.188;2022-08-25T17:00:04;22.40;82.70
68476;DHT22;55464;48.266;14.188;2022-08-25T17:02:30;22.40;82.90
68476;DHT22;55464;48.266;14.188;2022-08-25T17:04:56;22.30;83.00
68476;DHT22;55464;48.266;14.188;2022-08-25T17:07:22;22.30;83.10
68476;DHT22;55464;48.266;14.188;2022-08-25T17:09:47;22.30;83.30
68476;DHT22;55464;48.266;14.188;2022-08-25T17:12:13;22.30;83.40
68476;DHT22;55464;48.266;14.188;2022-08-25T17:14:39;22.20;83.40
68476;DHT22;55464;48.266;14.188;2022-08-25T17:17:05;22.20;83.40
68476;DHT22;55464;48.266;14.188;2022-08-25T17:19:31;22.20;83.60
68476;DHT22;55464;48.266;14.188;2022-08-25T17:21:57;22.20;83.70
68476;DHT22;55464;48.266;14.188;2022-08-25T17:24:23;22.20;83.90
68476;DHT22;55464;48.266;14.188;2022-08-25T17:26:49;22.10;83.90
68476;DHT22;55464;48.266;14.188;2022-08-25T17:29:18;22.10;84.10
68476;DHT22;55464;48.266;14.188;2022-08-25T17:31:44;22.00;84.20
68476;DHT22;55464;48.266;14.188;2022-08-25T17:34:13;22.00;84.20
68476;DHT22;55464;48.266;14.188;2022-08-25T17:36:39;22.00;84.10
68476;DHT22;55464;48.266;14.188;2022-08-25T17:39:06;22.00;84.00
68476;DHT22;55464;48.266;14.188;2022-08-25T17:41:33;22.00;84.00
68476;DHT22;55464;48.266;14.188;2022-08-25T17:43:58;22.00;84.10
68476;DHT22;55464;48.266;14.188;2022-08-25T17:46:25;22.00;84.10
68476;DHT22;55464;48.266;14.188;2022-08-25T17:48:51;22.00;84.10
68476;DHT22;55464;48.266;14.188;2022-08-25T17:51:17;21.90;84.20
68476;DHT22;55464;48.266;14.188;2022-08-25T17:53:43;21.80;84.30
68476;DHT22;55464;48.266;14.188;2022-08-25T17:56:12;21.80;84.20
68476;DHT22;55464;48.266;14.188;2022-08-25T17:58:41;21.80;84.30
68476;DHT22;55464;48.266;14.188;2022-08-25T18:01:15;21.80;84.30
68476;DHT22;55464;48.266;14.188;2022-08-25T18:03:41;21.70;84.30
68476;DHT22;55464;48.266;14.188;2022-08-25T18:06:08;21.70;84.30